.
WxDataArchive / Data Records for 2013-12-23
2013-12-22 December 2013 2013-12-24

Data Records for Monday, 23 December 2013

Time	Temp	Chill	HIndex	Humid	Dewpt	 Wind 	HiWind	WindDir	Rain 	Barom 
-----	----	-----	------	-----	-----	------	------	-------	-----	----- 
00:00	32.8	32.8	32.8	90	30.2	0	2	248	0.00	30.028 
00:05	32.7	32.7	32.7	90	30.1	0	2	248	0.00	30.028 
00:10	32.5	32.5	32.5	90	29.9	1	3	248	0.00	30.028 
00:15	32.5	32.5	32.5	90	29.9	1	3	248	0.00	30.032 
00:20	32.4	32.4	32.4	90	29.8	1	3	248	0.00	30.032 
00:25	32.2	32.2	32.2	90	29.6	1	3	248	0.00	30.032 
00:30	32.1	32.1	32.1	90	29.5	1	3	248	0.00	30.039 
00:35	31.9	31.9	31.9	90	29.3	1	3	248	0.00	30.039 
00:40	31.9	31.9	31.9	90	29.3	1	3	248	0.00	30.039 
00:45	31.9	31.9	31.9	90	29.3	0	2	248	0.00	30.037 
00:50	31.9	31.9	31.9	90	29.3	0	3	248	0.00	30.037 
00:55	31.8	31.8	31.8	91	29.5	1	3	292	0.00	30.037 
01:00	31.8	31.8	31.8	91	29.5	0	3	270	0.00	30.047 
01:05	31.8	31.8	31.8	91	29.5	0	1	270	0.00	30.047 
01:10	31.8	31.8	31.8	91	29.5	0	2	270	0.00	30.047 
01:15	31.8	31.8	31.8	91	29.5	0	2	270	0.00	30.050 
01:20	31.8	31.8	31.8	91	29.5	1	4	270	0.00	30.050 
01:25	31.6	31.6	31.6	91	29.3	2	3	270	0.00	30.050 
01:30	31.6	31.6	31.6	91	29.3	1	3	270	0.00	30.053 
01:35	31.5	31.5	31.5	91	29.2	1	2	270	0.00	30.053 
01:40	31.5	31.5	31.5	91	29.2	1	3	270	0.00	30.053 
01:45	31.6	31.6	31.6	92	29.5	0	2	270	0.00	30.055 
01:50	31.5	31.5	31.5	92	29.4	1	3	270	0.00	30.055 
01:55	31.6	31.6	31.6	92	29.5	0	1	270	0.00	30.055 
02:00	31.6	31.6	31.6	92	29.5	0	2	270	0.00	30.056 
02:05	31.5	31.5	31.5	92	29.4	1	2	270	0.00	30.056 
02:10	31.3	31.3	31.3	92	29.3	1	4	270	0.00	30.056 
02:15	31.3	31.3	31.3	92	29.3	0	2	270	0.00	30.068 
02:20	31.3	31.3	31.3	92	29.3	0	3	270	0.00	30.068 
02:25	31.2	31.2	31.2	92	29.2	1	3	270	0.00	30.068 
02:30	31.2	31.2	31.2	91	28.9	1	4	270	0.00	30.084 
02:35	31.2	31.2	31.2	91	28.9	1	2	270	0.00	30.084 
02:40	31.2	31.2	31.2	91	28.9	1	4	270	0.00	30.084 
02:45	31.2	31.2	31.2	91	28.9	1	3	270	0.00	30.099 
02:50	31.2	31.2	31.2	91	28.9	1	3	270	0.00	30.099 
02:55	31.0	31.0	31.0	91	28.7	0	2	270	0.00	30.099 
03:00	31.0	31.0	31.0	92	29.0	0	2	270	0.00	30.097 
03:05	31.0	31.0	31.0	92	29.0	1	3	270	0.00	30.097 
03:10	30.9	30.9	30.9	92	28.9	1	4	270	0.00	30.097 
03:15	30.7	30.7	30.7	92	28.7	1	4	292	0.00	30.100 
03:20	30.7	30.7	30.7	92	28.7	1	3	292	0.00	30.100 
03:25	30.6	30.6	30.6	92	28.6	1	4	270	0.00	30.100 
03:30	30.6	30.6	30.6	92	28.6	1	2	270	0.00	30.097 
03:35	30.4	30.4	30.4	92	28.4	1	3	270	0.00	30.097 
03:40	30.4	30.4	30.4	92	28.4	1	3	270	0.00	30.097 
03:45	30.4	30.4	30.4	92	28.4	1	4	270	0.00	30.103 
03:50	30.4	30.4	30.4	92	28.4	1	3	270	0.00	30.103 
03:55	30.3	30.3	30.3	92	28.3	2	4	270	0.00	30.103 
04:00	30.3	30.3	30.3	92	28.3	1	3	248	0.00	30.114 
04:05	30.3	30.3	30.3	91	28.0	1	4	248	0.00	30.114 
04:10	30.1	30.1	30.1	92	28.1	1	2	248	0.00	30.114 
04:15	30.1	30.1	30.1	91	27.8	1	4	270	0.00	30.116 
04:20	30.1	30.1	30.1	91	27.8	1	2	270	0.00	30.116 
04:25	30.0	30.0	30.0	91	27.7	1	5	270	0.00	30.116 
04:30	29.8	29.8	29.8	91	27.5	1	3	270	0.00	30.120 
04:35	29.8	29.8	29.8	91	27.5	1	3	270	0.00	30.120 
04:40	29.8	29.8	29.8	91	27.5	0	2	270	0.00	30.120 
04:45	29.7	29.7	29.7	90	27.1	1	2	270	0.00	30.124 
04:50	29.7	29.7	29.7	90	27.1	1	3	270	0.00	30.124 
04:55	29.7	29.7	29.7	90	27.1	1	3	270	0.00	30.124 
05:00	29.7	29.7	29.7	90	27.1	1	4	248	0.00	30.131 
05:05	29.5	29.5	29.5	90	26.9	1	4	248	0.00	30.131 
05:10	29.5	29.5	29.5	89	26.7	1	3	292	0.00	30.131 
05:15	29.4	29.4	29.4	89	26.6	0	3	270	0.00	30.132 
05:20	29.4	29.4	29.4	89	26.6	1	4	270	0.00	30.132 
05:25	29.3	29.3	29.3	88	26.2	2	4	270	0.00	30.132 
05:30	29.3	29.3	29.3	88	26.2	2	4	270	0.00	30.134 
05:35	29.3	29.3	29.3	88	26.2	1	4	292	0.00	30.134 
05:40	29.1	29.1	29.1	88	26.0	1	4	292	0.00	30.134 
05:45	29.3	29.3	29.3	87	25.9	1	3	292	0.00	30.139 
05:50	29.0	29.0	29.0	87	25.6	2	4	270	0.00	30.139 
05:55	28.8	28.8	28.8	86	25.2	2	5	248	0.00	30.139 
06:00	28.5	28.5	28.5	86	24.9	2	4	270	0.00	30.149 
06:05	28.5	28.5	28.5	85	24.6	2	6	270	0.00	30.149 
06:10	28.4	28.4	28.4	85	24.5	2	4	248	0.00	30.149 
06:15	28.4	28.4	28.4	85	24.5	1	4	270	0.00	30.159 
06:20	28.4	28.4	28.4	84	24.2	1	4	270	0.00	30.159 
06:25	28.4	28.4	28.4	84	24.2	2	4	270	0.00	30.159 
06:30	28.4	28.4	28.4	84	24.2	1	4	248	0.00	30.171 
06:35	28.4	28.4	28.4	84	24.2	1	3	248	0.00	30.171 
06:40	28.2	28.2	28.2	83	23.7	1	4	248	0.00	30.171 
06:45	28.2	28.2	28.2	83	23.7	2	5	270	0.00	30.181 
06:50	28.1	28.1	28.1	83	23.6	2	5	270	0.00	30.181 
06:55	27.9	27.9	27.9	82	23.1	3	7	270	0.00	30.181 
07:00	27.8	27.8	27.8	82	23.0	3	5	270	0.00	30.190 
07:05	27.8	27.8	27.8	81	22.7	3	5	270	0.00	30.190 
07:10	27.8	27.8	27.8	81	22.7	2	4	270	0.00	30.190 
07:15	27.6	27.6	27.6	81	22.5	2	5	270	0.00	30.199 
07:20	27.6	27.6	27.6	80	22.3	2	6	270	0.00	30.199 
07:25	27.6	27.6	27.6	80	22.3	2	6	270	0.00	30.199 
07:30	27.6	27.6	27.6	80	22.3	2	4	270	0.00	30.209 
07:35	27.6	27.6	27.6	81	22.5	1	3	248	0.00	30.209 
07:40	27.6	27.6	27.6	81	22.5	2	4	270	0.00	30.209 
07:45	27.6	27.6	27.6	81	22.5	2	5	248	0.00	30.216 
07:50	27.6	27.6	27.6	80	22.3	3	5	270	0.00	30.216 
07:55	27.5	27.5	27.5	79	21.9	3	6	315	0.00	30.216 
08:00	27.5	27.5	27.5	79	21.9	3	7	248	0.00	30.229 
08:05	27.5	27.5	27.5	79	21.9	2	4	270	0.00	30.229 
08:10	27.5	27.5	27.5	79	21.9	2	4	270	0.00	30.229 
08:15	27.5	27.5	27.5	79	21.9	2	5	270	0.00	30.231 
08:20	27.6	27.6	27.6	80	22.3	1	4	270	0.00	30.231 
08:25	27.6	27.6	27.6	80	22.3	1	4	270	0.00	30.231 
08:30	27.6	27.6	27.6	80	22.3	1	3	270	0.00	30.241 
08:35	27.6	27.6	27.6	80	22.3	1	4	270	0.00	30.241 
08:40	27.6	27.6	27.6	80	22.3	1	3	270	0.00	30.241 
08:45	27.8	27.8	27.8	80	22.4	1	3	270	0.00	30.249 
08:50	27.8	27.8	27.8	80	22.4	1	3	270	0.00	30.249 
08:55	27.8	27.8	27.8	81	22.7	2	5	270	0.00	30.249 
09:00	27.8	27.8	27.8	81	22.7	2	4	270	0.00	30.253 
09:05	27.8	27.8	27.8	81	22.7	2	4	292	0.00	30.253 
09:10	27.9	27.9	27.9	81	22.8	1	3	270	0.00	30.253 
09:15	27.9	27.9	27.9	81	22.8	1	4	292	0.00	30.263 
09:20	27.9	27.9	27.9	81	22.8	1	3	292	0.00	30.263 
09:25	28.1	28.1	28.1	81	23.0	1	3	292	0.00	30.263 
09:30	27.9	27.9	27.9	81	22.8	1	4	292	0.00	30.270 
09:35	27.9	27.9	27.9	82	23.1	1	3	270	0.00	30.270 
09:40	27.9	27.9	27.9	82	23.1	1	4	270	0.00	30.270 
09:45	27.8	27.8	27.8	82	23.0	1	5	270	0.00	30.278 
09:50	27.8	27.8	27.8	82	23.0	2	4	248	0.00	30.278 
09:55	27.8	27.8	27.8	82	23.0	2	4	248	0.00	30.278 
10:00	27.8	27.8	27.8	82	23.0	2	4	248	0.00	30.293 
10:05	27.8	27.8	27.8	81	22.7	2	4	270	0.00	30.293 
10:10	27.8	27.8	27.8	81	22.7	2	5	270	0.00	30.293 
10:15	27.8	27.8	27.8	79	22.2	2	4	248	0.00	30.299 
10:20	27.9	27.9	27.9	79	22.2	1	4	225	0.00	30.299 
10:25	28.2	28.2	28.2	79	22.5	1	3	225	0.00	30.299 
10:30	28.1	28.1	28.1	77	21.8	3	6	270	0.00	30.307 
10:35	27.9	27.9	27.9	76	21.3	2	4	270	0.00	30.307 
10:40	27.9	27.9	27.9	75	21.0	2	4	248	0.00	30.307 
10:45	28.1	28.1	28.1	75	21.2	2	4	248	0.00	30.309 
10:50	28.1	28.1	28.1	74	20.9	2	5	248	0.00	30.309 
10:55	28.2	28.2	28.2	75	21.3	1	3	248	0.00	30.309 
11:00	28.2	28.2	28.2	74	21.0	1	4	270	0.00	30.310 
11:05	28.2	28.2	28.2	74	21.0	1	3	270	0.00	30.310 
11:10	28.2	28.2	28.2	75	21.3	2	4	270	0.00	30.310 
11:15	28.4	28.4	28.4	74	21.2	2	5	270	0.00	30.313 
11:20	28.2	28.2	28.2	74	21.0	2	4	270	0.00	30.313 
11:25	28.2	28.2	28.2	74	21.0	2	5	315	0.00	30.313 
11:30	28.2	28.2	28.2	73	20.7	2	4	248	0.00	30.311 
11:35	28.4	28.4	28.4	74	21.2	1	3	248	0.00	30.311 
11:40	28.4	28.4	28.4	73	20.9	2	5	270	0.00	30.311 
11:45	28.5	28.5	28.5	72	20.6	2	4	248	0.00	30.308 
11:50	28.7	28.7	28.7	73	21.2	2	4	248	0.00	30.308 
11:55	28.4	28.4	28.4	71	20.2	3	5	270	0.00	30.308 
12:00	28.2	28.2	28.2	70	19.7	2	4	270	0.00	30.315 
12:05	28.1	28.1	28.1	69	19.3	3	9	248	0.00	30.315 
12:10	27.9	27.9	27.9	72	20.1	2	9	248	0.00	30.315 
12:15	27.8	27.8	27.8	75	20.9	2	7	248	0.00	30.315 
12:20	27.5	27.5	27.5	78	21.6	2	5	248	0.00	30.315 
12:25	27.2	27.2	27.2	80	21.9	1	5	248	0.00	30.315 
12:30	27.2	27.2	27.2	79	21.6	2	5	248	0.00	30.313 
12:35	27.0	27.0	27.0	80	21.7	2	5	248	0.00	30.313 
12:40	27.2	27.2	27.2	79	21.6	2	4	270	0.00	30.313 
12:45	27.2	27.2	27.2	79	21.6	3	7	248	0.00	30.312 
12:50	27.0	27.0	27.0	80	21.7	1	4	248	0.00	30.312 
12:55	27.2	27.2	27.2	80	21.9	2	6	248	0.00	30.312 
13:00	27.2	27.2	27.2	79	21.6	2	7	248	0.00	30.311 
13:05	27.3	27.3	27.3	79	21.7	1	5	270	0.00	30.311 
13:10	27.2	27.2	27.2	78	21.3	2	7	248	0.00	30.311 
13:15	26.9	26.9	26.9	77	20.7	2	4	248	0.00	30.311 
13:20	26.9	26.9	26.9	78	21.0	1	5	248	0.00	30.311 
13:25	26.7	26.7	26.7	77	20.5	2	5	248	0.00	30.311 
13:30	26.7	26.7	26.7	77	20.5	2	5	248	0.00	30.314 
13:35	26.9	26.9	26.9	77	20.7	2	6	248	0.00	30.314 
13:40	26.9	26.9	26.9	77	20.7	2	6	248	0.00	30.314 
13:45	26.6	26.6	26.6	77	20.4	2	4	270	0.00	30.315 
13:50	26.6	26.6	26.6	77	20.4	1	3	270	0.00	30.315 
13:55	26.6	26.6	26.6	77	20.4	2	4	270	0.00	30.315 
14:00	26.4	26.4	26.4	78	20.5	2	4	270	0.00	30.315 
14:05	26.4	26.4	26.4	78	20.5	1	4	248	0.00	30.315 
14:10	26.6	26.6	26.6	78	20.7	1	4	248	0.00	30.315 
14:15	26.7	26.7	26.7	77	20.5	1	4	248	0.00	30.311 
14:20	26.7	26.7	26.7	77	20.5	1	3	248	0.00	30.311 
14:25	26.7	26.7	26.7	76	20.2	2	5	248	0.00	30.311 
14:30	27.0	27.0	27.0	76	20.5	2	4	270	0.00	30.311 
14:35	27.2	27.2	27.2	75	20.3	2	6	270	0.00	30.311 
14:40	27.0	27.0	27.0	72	19.2	2	5	248	0.00	30.311 
14:45	26.7	26.7	26.7	72	18.9	1	4	248	0.00	30.314 
14:50	26.7	26.7	26.7	72	18.9	2	4	248	0.00	30.314 
14:55	26.6	26.6	26.6	72	18.8	2	6	248	0.00	30.314 
15:00	26.4	26.4	26.4	72	18.6	2	4	292	0.00	30.314 
15:05	26.4	26.4	26.4	72	18.6	2	5	248	0.00	30.314 
15:10	26.3	26.3	26.3	72	18.5	2	5	248	0.00	30.314 
15:15	26.3	26.3	26.3	71	18.2	2	11	248	0.00	30.319 
15:20	26.1	26.1	26.1	72	18.3	2	5	248	0.00	30.319 
15:25	26.1	26.1	26.1	73	18.7	1	3	248	0.00	30.319 
15:30	26.3	26.3	26.3	73	18.8	0	2	248	0.00	30.320 
15:35	26.1	26.1	26.1	73	18.7	1	4	248	0.00	30.320 
15:40	26.0	26.0	26.0	72	18.2	3	6	248	0.00	30.320 
15:45	26.0	26.0	26.0	73	18.6	1	4	248	0.00	30.323 
15:50	25.8	25.8	25.8	73	18.4	2	7	248	0.00	30.323 
15:55	25.8	25.8	25.8	73	18.4	1	3	248	0.00	30.323 
16:00	25.7	25.7	25.7	72	17.9	1	5	248	0.00	30.324 
16:05	25.6	25.6	25.6	73	18.2	1	4	248	0.00	30.324 
16:10	25.4	25.4	25.4	73	18.0	1	7	248	0.00	30.324 
16:15	25.3	25.3	25.3	72	17.6	3	8	248	0.00	30.336 
16:20	25.3	25.3	25.3	73	17.9	1	4	248	0.00	30.336 
16:25	25.3	25.3	25.3	73	17.9	1	5	248	0.00	30.336 
16:30	25.1	25.1	25.1	72	17.4	2	5	248	0.00	30.340 
16:35	25.0	25.0	25.0	72	17.3	2	5	248	0.00	30.340 
16:40	25.0	25.0	25.0	73	17.6	2	6	248	0.00	30.340 
16:45	24.7	24.7	24.7	71	16.7	2	4	248	0.00	30.345 
16:50	24.7	24.7	24.7	72	17.0	2	6	248	0.00	30.345 
16:55	24.5	24.5	24.5	73	17.1	2	5	248	0.00	30.345 
17:00	24.4	24.4	24.4	73	17.0	3	9	248	0.00	30.349 
17:05	24.4	24.4	24.4	73	17.0	2	6	248	0.00	30.349 
17:10	24.2	24.2	24.2	73	16.8	2	6	248	0.00	30.349 
17:15	23.9	23.9	23.9	73	16.5	3	7	248	0.00	30.359 
17:20	23.8	23.8	23.8	72	16.1	2	4	248	0.00	30.359 
17:25	23.6	23.6	23.6	73	16.2	1	4	270	0.00	30.359 
17:30	23.6	23.6	23.6	73	16.2	2	4	270	0.00	30.359 
17:35	23.6	23.6	23.6	74	16.6	1	3	270	0.00	30.359 
17:40	23.6	23.6	23.6	74	16.6	2	4	270	0.00	30.359 
17:45	23.6	23.6	23.6	74	16.6	2	4	270	0.00	30.364 
17:50	23.8	23.8	23.8	73	16.4	2	4	270	0.00	30.364 
17:55	23.6	23.6	23.6	73	16.2	2	6	270	0.00	30.364 
18:00	23.8	23.8	23.8	73	16.4	2	4	248	0.00	30.359 
18:05	23.8	23.8	23.8	73	16.4	1	3	248	0.00	30.359 
18:10	23.6	23.6	23.6	72	15.9	2	5	248	0.00	30.359 
18:15	23.6	23.6	23.6	69	14.9	3	5	248	0.00	30.362 
18:20	23.8	23.8	23.8	70	15.5	2	5	248	0.00	30.362 
18:25	23.8	23.8	23.8	71	15.8	0	3	248	0.00	30.362 
18:30	23.8	23.8	23.8	71	15.8	1	3	292	0.00	30.365 
18:35	23.6	23.6	23.6	71	15.6	2	4	248	0.00	30.365 
18:40	23.6	23.6	23.6	70	15.3	2	7	248	0.00	30.365 
18:45	23.6	23.6	23.6	69	14.9	2	4	248	0.00	30.366 
18:50	23.6	23.6	23.6	69	14.9	1	3	248	0.00	30.366 
18:55	23.6	23.6	23.6	69	14.9	1	3	248	0.00	30.366 
19:00	23.5	23.5	23.5	70	15.2	1	4	248	0.00	30.368 
19:05	23.3	23.3	23.3	70	15.0	2	5	248	0.00	30.368 
19:10	23.2	23.2	23.2	70	14.9	1	3	270	0.00	30.368 
19:15	23.0	23.0	23.0	69	14.4	3	9	270	0.00	30.377 
19:20	22.7	22.7	22.7	68	13.8	2	5	270	0.00	30.377 
19:25	22.4	22.4	22.4	68	13.5	2	5	270	0.00	30.377 
19:30	22.1	22.1	22.1	68	13.2	1	3	248	0.00	30.374 
19:35	21.9	21.9	21.9	67	12.7	2	5	270	0.00	30.374 
19:40	21.8	21.8	21.8	66	12.2	1	5	248	0.00	30.374 
19:45	21.6	21.6	21.6	66	12.0	1	3	248	0.00	30.379 
19:50	21.6	21.6	21.6	65	11.7	1	4	248	0.00	30.379 
19:55	21.4	21.4	21.4	64	11.1	3	6	248	0.00	30.379 
20:00	21.3	21.3	21.3	65	11.4	1	4	248	0.00	30.382 
20:05	21.1	21.1	21.1	65	11.2	2	6	248	0.00	30.382 
20:10	21.0	21.0	21.0	65	11.1	2	6	248	0.00	30.382 
20:15	20.6	20.6	20.6	65	10.7	3	6	248	0.00	30.383 
20:20	20.5	20.5	20.5	65	10.6	3	6	270	0.00	30.383 
20:25	20.3	20.3	20.3	66	10.8	2	4	270	0.00	30.383 
20:30	20.2	20.2	20.2	67	11.0	2	5	270	0.00	30.384 
20:35	20.2	20.2	20.2	67	11.0	1	4	270	0.00	30.384 
20:40	20.0	20.0	20.0	68	11.2	2	6	270	0.00	30.384 
20:45	20.0	20.0	20.0	68	11.2	2	6	248	0.00	30.385 
20:50	19.9	19.9	19.9	68	11.1	2	4	270	0.00	30.385 
20:55	19.7	19.7	19.7	68	10.9	2	5	248	0.00	30.385 
21:00	19.5	19.5	19.5	68	10.7	2	4	248	0.00	30.386 
21:05	19.4	19.4	19.4	66	9.9	2	6	248	0.00	30.386 
21:10	19.2	19.2	19.2	65	9.4	1	4	270	0.00	30.386 
21:15	19.2	19.2	19.2	64	9.0	2	6	248	0.00	30.387 
21:20	18.9	18.9	18.9	63	8.4	2	4	248	0.00	30.387 
21:25	18.8	18.8	18.8	62	8.0	2	4	248	0.00	30.387 
21:30	18.6	18.6	18.6	62	7.8	2	4	248	0.00	30.386 
21:35	18.4	18.4	18.4	63	7.9	2	6	248	0.00	30.386 
21:40	18.3	18.3	18.3	63	7.8	1	4	248	0.00	30.386 
21:45	18.1	18.1	18.1	63	7.7	1	3	248	0.00	30.388 
21:50	18.0	18.0	18.0	62	7.2	1	3	248	0.00	30.388 
21:55	17.7	17.7	17.7	62	6.9	2	4	248	0.00	30.388 
22:00	17.5	17.5	17.5	63	7.1	2	4	270	0.00	30.389 
22:05	17.3	17.3	17.3	64	7.2	0	4	270	0.00	30.389 
22:10	17.2	17.2	17.2	65	7.5	1	3	270	0.00	30.389 
22:15	17.0	17.0	17.0	65	7.3	2	5	248	0.00	30.390 
22:20	16.9	16.9	16.9	65	7.2	1	3	248	0.00	30.390 
22:25	16.7	16.7	16.7	65	7.0	2	5	248	0.00	30.390 
22:30	16.4	16.4	16.4	62	5.7	3	7	270	0.00	30.394 
22:35	16.1	16.1	16.1	62	5.4	2	5	248	0.00	30.394 
22:40	15.9	15.9	15.9	63	5.6	2	5	248	0.00	30.394 
22:45	15.7	15.7	15.7	63	5.4	2	5	248	0.00	30.395 
22:50	15.6	15.6	15.6	64	5.6	1	4	248	0.00	30.395 
22:55	15.4	15.4	15.4	64	5.4	2	6	248	0.00	30.395 
23:00	15.2	15.2	15.2	65	5.6	1	3	248	0.00	30.400 
23:05	15.2	15.2	15.2	65	5.6	1	3	248	0.00	30.400 
23:10	14.9	14.9	14.9	65	5.3	2	5	248	0.00	30.400 
23:15	14.8	14.8	14.8	65	5.2	2	7	248	0.00	30.395 
23:20	14.8	14.8	14.8	65	5.2	2	3	248	0.00	30.395 
23:25	14.6	14.6	14.6	66	5.3	1	5	248	0.00	30.395 
23:30	14.4	14.4	14.4	66	5.1	2	4	248	0.00	30.394 
23:35	14.4	14.4	14.4	67	5.5	2	3	270	0.00	30.394 
23:40	14.3	14.3	14.3	68	5.7	2	4	270	0.00	30.394 
23:45	14.3	14.3	14.3	68	5.7	1	3	270	0.00	30.394 
23:50	14.4	14.4	14.4	69	6.1	1	2	270	0.00	30.394 
23:55	14.4	14.4	14.4	69	6.1	2	6	270	0.00	30.394 

CoCoRaHS
IN-AL-39
A2 Web Hosting
Creative Commons License
GoDaddy
search engine by freefind advanced

loaded 2018-11-20 15:19:11 • last modified 2010-11-18 10:43:29
Privacy PolicyDisclaimer
• wx.awcolley.com is powered by PmWiki v.2002016 •
• all content (unless otherwise noted) © 2018 A W Colley